首页
METAR-TAF:

METAR-TAF

机场 :

昆明长水国际机场

昆明, 中华人民共和国

纬度: 25-01N, 经度: 102-41E, 海拔: 1892米

当前天气观测

该预报发布于29分钟前的21:00 UTC
静风
温度 13°C
湿度 94%
气压 1024 hPa
能见度10公里或以上
散云层高于2000英尺

METAR: ZPPP 222100Z 00000MPS 9999 SCT020 13/12 Q1024 NOSIG

时间: 05:29 (21:29 UTC)

预报

该预报发布于8小时和26分钟前的13:03 UTC
预报有效从22日的 18点(UTC)到 23日的 18点(UTC)
风速8节,风向西转西南
能见度10公里或以上
散云层高于2600英尺

TAF: ZPPP 221303Z 2218/2318 24004MPS 9999 SCT026 TX22/2308Z TN09/2223Z

超过4000个机场的气象观测和天气预报(METAR&TAF报告)。

可查询的气象台以黄色和红色小点在地图上表示。

将鼠标移到小点上方,可查看气象台名称。

然后点击查看天气观测和预报。

如需切换地图:点击带黑十字的绿色按钮放大地图;点击带横线的绿色按钮缩小地图;或者点击绿色箭头查看邻近地区的地图。


METAR-TAF: